• Join FlightAware (Why Join?)
  • Login
  • US Flag 
Gobble Gobble! 
02:39PM EST


 

Airport Tracker/Info


-or-


 

Live Flight TrackerFlight Track Log ✈ N4226K ✈ 09-May-2014

Flight Track Log - Related Links

Times and Time Zones

All times are in EDT time to prevent confusion due to time zone crossing. See the N4226K flight status page for this flight to view local times or setup timezone preferences in your user account.

Time Position Orientation Groundspeed Altitude Reporting Facility
EDT Latitude Longitude Course Direction KTS MPH feet Rate Location/Type
09:32AM 34.2836 -83.1714 201° Southwest 140 161 2,100  Level Atlanta Center
09:33AM 34.2547 -83.1817 196° South 134 154 2,500 360 Climbing Atlanta Center
09:34AM 34.2275 -83.1922 198° South 121 139 2,900 300 Climbing Atlanta Center
09:35AM 34.2006 -83.2100 209° Southwest 116 133 3,200 300 Climbing Atlanta Center
09:36AM 34.1714 -83.2203 196° South 111 128 3,600 360 Climbing Atlanta Center
09:37AM 34.1464 -83.2331 203° Southwest 111 128 4,000 360 Climbing Atlanta Center
09:38AM 34.1519 -83.2147 201° Southwest  Level FlightAware Approximate
09:38AM 34.1172 -83.2483 203° Southwest 111 128 4,400  Level Atlanta Center
09:39AM 34.0903 -83.2586 198° South 111 128 4,700 240 Climbing Atlanta Center
09:40AM 34.0631 -83.2714 201° Southwest 111 128 4,900 60 Climbing Atlanta Center
09:41AM 34.0361 -83.2842 201° Southwest 116 133 4,900  Level Atlanta Center
09:42AM 34.0050 -83.2994 202° Southwest 116 133 4,900  Level Atlanta Center
09:45AM 33.9333 -83.3167 191° South 122 140 5,000  Climbing Atlanta TRACON
09:46AM 33.9000 -83.3000 157° South 127 146 4,900 -60 Descending Atlanta TRACON
09:47AM 33.8667 -83.2833 157° South 126 145 4,900  Level Atlanta TRACON
09:51AM 33.7333 -83.2500 164° South 123 142 4,900  Level Atlanta TRACON
09:52AM 33.7000 -83.2333 157° South 124 143 4,900  Level Atlanta TRACON
09:54AM 33.6500 -83.2167 170° South 126 145 4,900  Level Atlanta TRACON
09:55AM 33.6110 -83.1943 164° South  Level FlightAware Approximate
09:55AM 33.6167 -83.2000 157° South 126 145 4,900  Level Atlanta TRACON
09:56AM 33.5790 -83.1832 164° South  Level FlightAware Approximate
09:56AM 33.5833 -83.1833 157° South 128 147 4,900  Level Atlanta TRACON
09:58AM 33.5167 -83.1667 168° South 127 146 5,000  Climbing Atlanta TRACON
09:59AM 33.4833 -83.1500 157° South 126 145 5,000 -60 Level Atlanta TRACON
10:00AM 33.4500 -83.1333 157° South 128 147 4,900 -60 Descending Atlanta TRACON
10:01AM 33.4167 -83.1167 157° South 125 144 4,900  Level Atlanta TRACON
10:02AM 33.3500 -83.1167 180° South 124 143 4,900  Level Atlanta TRACON
10:04AM 33.3000 -83.1000 164° South 127 146 4,900  Level Atlanta TRACON
10:04AM 33.2833 -83.1000 180° South 125 144 4,900  Level Atlanta TRACON
10:05AM 33.2500 -83.0833 157° South 125 144 5,000  Climbing Atlanta TRACON
10:06AM 33.2167 -83.0833 180° South 126 145 5,000 -60 Level Atlanta TRACON
10:07AM 33.1667 -83.0833 180° South 128 147 4,900 -60 Descending Atlanta TRACON
10:08AM 33.1500 -83.0667 140° Southeast 124 143 4,900  Level Atlanta TRACON
10:09AM 33.1000 -83.0667 180° South 124 143 5,000  Climbing Atlanta TRACON
10:10AM 33.0667 -83.0500 157° South 127 146 5,000 -60 Level Atlanta TRACON
10:11AM 33.0333 -83.0500 180° South 128 147 4,900 -60 Descending Atlanta TRACON
10:12AM 33.0000 -83.0333 157° South 126 145 4,900  Level Atlanta TRACON
10:13AM 32.9667 -83.0333 180° South 126 145 5,000  Climbing Atlanta TRACON
10:14AM 32.9333 -83.0333 180° South 127 146 4,900  Descending Atlanta TRACON
10:15AM 32.9000 -83.0167 157° South 126 145 5,000  Climbing Atlanta TRACON
10:16AM 32.8667 -83.0167 180° South 126 145 5,000  Level Atlanta TRACON
10:17AM 32.8333 -83.0000 157° South 126 145 5,000  Level Atlanta TRACON
10:18AM 32.8000 -83.0000 180° South 139 160 5,000  Level Atlanta TRACON
10:20AM 32.7500 -82.9833 164° South 131 151 5,000  Level Atlanta TRACON
10:20AM 32.7333 -82.9833 180° South 126 145 5,000  Level Atlanta TRACON
10:21AM 32.7000 -82.9667 157° South 129 148 5,000  Level Atlanta TRACON
10:23AM 32.6500 -82.9667 180° South 131 151 5,000  Level Atlanta TRACON
10:23AM 32.6167 -82.9667 180° South 130 150 5,000  Level Atlanta TRACON
10:24AM 32.5833 -82.9500 157° South 127 146 5,000 -60 Level Atlanta TRACON
10:25AM 32.5500 -82.9500 180° South 131 151 4,900 -60 Descending Atlanta TRACON
10:26AM 32.5167 -82.9333 157° South 126 145 4,900  Level Atlanta TRACON
10:28AM 32.4833 -82.9333 180° South 128 147 4,900  Level Atlanta TRACON
10:29AM 32.4500 -82.9167 157° South 128 147 4,900  Level Atlanta TRACON
10:31AM 32.3667 -82.9000 170° South 132 152 5,000  Climbing Atlanta TRACON
10:32AM 32.3333 -82.9000 180° South 134 154 5,000  Level Atlanta TRACON
10:33AM 32.3000 -82.8833 157° South 131 151 5,000 -60 Level Atlanta TRACON
10:34AM 32.2606 -82.8853 182° South 138 159 4,900  Descending Jacksonville Center
10:35AM 32.2228 -82.8778 170° South 138 159 5,000  Climbing Jacksonville Center
10:36AM 32.1894 -82.8681 166° South 138 159 5,000  Level Jacksonville Center
10:37AM 32.1539 -82.8606 170° South 138 159 5,100  Climbing Jacksonville Center
10:38AM 32.1206 -82.8533 170° South 133 153 5,100  Level Jacksonville Center
10:39AM 32.0831 -82.8436 168° South 133 153 5,100 -60 Level Jacksonville Center
10:40AM 32.0475 -82.8386 173° South 133 153 5,000 -60 Descending Jacksonville Center
10:41AM 32.0142 -82.8314 170° South 127 146 5,000  Level Jacksonville Center
10:42AM 31.9808 -82.8239 169° South 127 146 5,000  Level Jacksonville Center
10:43AM 31.9431 -82.8167 171° South 127 146 5,000  Level Jacksonville Center
10:44AM 31.9075 -82.8119 174° South 127 146 5,100  Climbing Jacksonville Center
10:45AM 31.8722 -82.8044 170° South 127 146 5,000 -60 Descending Jacksonville Center
10:46AM 31.8367 -82.7947 167° South 121 139 5,000  Level Jacksonville Center
10:47AM 31.8033 -82.7900 173° South 126 145 5,000  Level Jacksonville Center
10:48AM 31.7678 -82.7803 167° South 126 145 5,000  Level Jacksonville Center
10:49AM 31.7342 -82.7728 169° South 131 151 5,100  Climbing Jacksonville Center
10:50AM 31.7008 -82.7583 160° South 126 145 5,100 -60 Level Jacksonville Center
10:51AM 31.6675 -82.7411 156° South 126 145 5,000 -60 Descending Jacksonville Center
10:52AM 31.6297 -82.7267 162° South 126 145 5,000  Level Jacksonville Center
10:53AM 31.5986 -82.7119 158° South 126 145 5,000  Level Jacksonville Center
10:54AM 31.5650 -82.6975 160° South 126 145 5,000  Level Jacksonville Center
10:55AM 31.5317 -82.6831 160° South 131 151 5,000  Level Jacksonville Center
10:56AM 31.5003 -82.6683 158° South 131 151 5,000  Level Jacksonville Center
10:57AM 31.4689 -82.6514 155° Southeast 131 151 5,100  Climbing Jacksonville Center
10:58AM 31.4356 -82.6369 160° South 131 151 5,100 60 Level Jacksonville Center
10:59AM 31.4042 -82.6225 159° South 131 151 5,300 300 Climbing Jacksonville Center
11:00AM 31.3750 -82.6078 157° South 131 151 5,700 360 Climbing Jacksonville Center
11:01AM 31.3456 -82.5958 161° South 131 151 6,100 300 Climbing Jacksonville Center
11:02AM 31.3122 -82.5839 163° South 131 151 6,400 360 Climbing Jacksonville Center
11:03AM 31.2872 -82.5692 153° Southeast 131 151 6,900 420 Climbing Jacksonville Center
11:04AM 31.2578 -82.5547 157° South 126 145 7,300 300 Climbing Jacksonville Center
11:05AM 31.2267 -82.5547 180° South 121 139 7,600 360 Climbing Jacksonville Center
11:06AM 31.1972 -82.5525 176° South 116 133 8,100 420 Climbing Jacksonville Center
11:07AM 31.1681 -82.5550 184° South 111 128 8,500 300 Climbing Jacksonville Center
11:08AM 31.1367 -82.5578 184° South 111 128 8,800 300 Climbing Jacksonville Center
11:09AM 31.1056 -82.5578 180° South 111 128 9,100 120 Climbing Jacksonville Center
11:10AM 31.0742 -82.5578 180° South 111 128 9,100 -60 Level Jacksonville Center
11:11AM 31.0364 -82.5556 177° South 123 142 9,000 -60 Descending Jacksonville Center
11:12AM 31.0011 -82.5581 183° South 129 148 9,000  Level Jacksonville Center
11:13AM 30.9656 -82.5583 180° South 129 148 9,000  Level Jacksonville Center
11:14AM 30.9322 -82.5608 184° South 123 142 9,000  Level Jacksonville Center
11:15AM 30.8986 -82.5583 176° South 123 142 9,000  Level Jacksonville Center
11:16AM 30.8633 -82.5611 184° South 123 142 9,000  Level Jacksonville Center
11:17AM 30.8278 -82.5586 177° South 123 142 9,000  Level Jacksonville Center
11:18AM 30.7922 -82.5589 180° South 123 142 9,000  Level Jacksonville Center
11:19AM 30.7567 -82.5567 177° South 123 142 9,000  Level Jacksonville Center
11:20AM 30.7211 -82.5592 183° South 123 142 9,000  Level Jacksonville Center
11:21AM 30.6836 -82.5569 177° South 123 142 9,000  Level Jacksonville Center
11:22AM 30.6503 -82.5569 180° South 123 142 9,000  Level Jacksonville Center
11:23AM 30.6147 -82.5569 180° South 123 142 9,000  Level Jacksonville Center
11:24AM 30.5772 -82.5572 180° South 123 142 9,000  Level Jacksonville Center
11:25AM 30.5439 -82.5550 177° South 123 142 9,000  Level Jacksonville Center
11:26AM 30.5083 -82.5550 180° South 123 142 9,000  Level Jacksonville Center
11:27AM 30.4728 -82.5456 167° South 123 142 9,000  Level Jacksonville Center
11:28AM 30.4372 -82.5383 170° South 123 142 9,000  Level Jacksonville Center
11:29AM 30.4039 -82.5314 170° South 123 142 9,000  Level Jacksonville Center
11:30AM 30.3683 -82.5217 167° South 123 142 9,000  Level Jacksonville Center
11:31AM 30.3347 -82.5147 170° South 123 142 9,000  Level Jacksonville Center
11:32AM 30.2994 -82.5078 170° South 123 142 9,000  Level Jacksonville Center
11:33AM 30.2658 -82.5006 169° South 123 142 9,000  Level Jacksonville Center
11:34AM 30.2303 -82.4936 170° South 123 142 9,000  Level Jacksonville Center
11:35AM 30.1969 -82.4864 169° South 123 142 9,000  Level Jacksonville Center
11:36AM 30.1614 -82.4794 170° South 123 142 9,000  Level Jacksonville Center
11:37AM 30.1239 -82.4747 174° South 123 142 9,000  Level Jacksonville Center
11:37AM 30.1072 -82.4725 173° South 127 146 9,000  Level Jacksonville Center
11:38AM 30.0906 -82.4653 159° South 123 142 9,000  Level Jacksonville Center
11:38AM 30.0694 -82.4631 175° South 130 150 9,000  Level Jacksonville Center
11:39AM 30.0550 -82.4583 164° South 123 142 9,000 60 Level Jacksonville Center
11:39AM 30.0339 -82.4558 174° South 127 146 9,100  Climbing Jacksonville Center
11:40AM 30.0172 -82.4489 160° South 123 142 9,000  Descending Jacksonville Center
11:40AM 29.9986 -82.4489 180° South 129 148 9,100  Climbing Jacksonville Center
11:41AM 29.9817 -82.4417 160° South 123 142 9,000 -120 Descending Jacksonville Center
11:41AM 29.9631 -82.4419 181° South 130 150 9,000  Level Jacksonville Center
11:42AM 29.9442 -82.4372 168° South 123 142 9,000  Level Jacksonville Center
11:42AM 29.9253 -82.4347 173° South 130 150 9,000  Level Jacksonville Center
11:43AM 29.9108 -82.4300 164° South 123 142 9,000  Level Jacksonville Center
11:43AM 29.8900 -82.4278 175° South 129 148 9,000  Level Jacksonville Center
11:44AM 29.8753 -82.4208 158° South 123 142 9,000  Level Jacksonville Center
11:44AM 29.8544 -82.4161 169° South 128 147 9,000  Level Jacksonville Center
11:45AM 29.8439 -82.4136 168° South 123 142 9,000 60 Level Jacksonville Center
11:45AM 29.8167 -82.4089 171° South 130 150 9,100  Climbing Jacksonville Center
11:46AM 29.8083 -82.4089 180° South 123 142 9,000 -120 Descending Jacksonville Center
11:46AM 29.7833 -82.4044 171° South 128 147 9,000  Level Jacksonville Center
11:47AM 29.7728 -82.3997 159° South 123 142 9,000  Level Jacksonville Center
11:47AM 29.7478 -82.3975 176° South 130 150 9,000  Level Jacksonville Center
11:48AM 29.7122 -82.3903 170° South 129 148 9,000  Level Jacksonville Center
11:49AM 29.6725 -82.3811 169° South 129 148 9,100  Climbing Jacksonville Center
11:50AM 29.6369 -82.3742 170° South 131 151 9,000 -60 Descending Jacksonville Center
11:51AM 29.6017 -82.3694 173° South 133 153 9,000  Level Jacksonville Center
11:52AM 29.5639 -82.3600 168° South 130 150 9,000  Level Jacksonville Center
11:53AM 29.5264 -82.3531 171° South 131 151 9,000  Level Jacksonville Center
11:54AM 29.4908 -82.3439 167° South 130 150 9,000  Level Jacksonville Center
11:55AM 29.4531 -82.3344 168° South 134 154 9,000  Level Jacksonville Center
11:56AM 29.4197 -82.3275 170° South 132 152 9,000  Level Jacksonville Center
11:57AM 29.3842 -82.3231 174° South 131 151 9,000  Level Jacksonville Center
11:58AM 29.3425 -82.3136 169° South 134 154 9,000  Level Jacksonville Center
11:59AM 29.3069 -82.3067 170° South 133 153 9,100  Climbing Jacksonville Center
12:01PM 29.2692 -82.2975 168° South 132 152 9,100 -60 Level Jacksonville Center
12:02PM 29.2317 -82.2906 171° South 135 155 9,000 -60 Descending Jacksonville Center
12:02PM 29.1961 -82.2858 173° South 135 155 9,000  Level Jacksonville Center
12:03PM 29.1628 -82.2792 170° South 136 157 9,000  Level Jacksonville Center
12:04PM 29.1208 -82.2697 169° South 135 155 9,000  Level Jacksonville Center
12:06PM 29.0833 -82.2606 168° South 137 158 9,000  Level Jacksonville Center
12:06PM 29.0500 -82.2561 173° South 135 155 9,000  Level Jacksonville Center
12:07PM 29.0103 -82.2467 168° South 133 153 9,100  Climbing Jacksonville Center
12:08PM 28.9747 -82.2397 170° South 137 158 9,000 -120 Descending Jacksonville Center
12:09PM 28.9372 -82.2331 171° South 137 158 8,900  Descending Jacksonville Center
12:10PM 28.8975 -82.2214 166° South 134 154 9,000  Climbing Jacksonville Center
12:12PM 28.8597 -82.2122 168° South 139 160 8,900  Descending Jacksonville Center
12:13PM 28.8017 -82.1989 169° South 137 158 9,100  Climbing Miami Center
12:14PM 28.7833 -82.2000 183° South 135 155 9,000 -120 Descending Tampa TRACON
12:15PM 28.7333 -82.1833 164° South 137 158 9,000  Level Tampa TRACON
12:16PM 28.7000 -82.1833 180° South 139 160 9,000  Level Tampa TRACON
12:17PM 28.6667 -82.1667 156° South 138 159 9,000 -60 Level Tampa TRACON
12:18PM 28.6333 -82.1667 180° South 137 158 8,900 -60 Descending Tampa TRACON
12:19PM 28.5833 -82.1500 164° South 139 160 8,900  Level Tampa TRACON
12:20PM 28.5500 -82.1500 180° South 136 157 9,000  Climbing Tampa TRACON
12:21PM 28.5167 -82.1333 156° South 138 159 9,000 -60 Level Tampa TRACON
12:22PM 28.4833 -82.1333 180° South 141 162 8,900 -60 Descending Tampa TRACON
12:23PM 28.4333 -82.1167 164° South 138 159 8,900  Level Tampa TRACON
12:24PM 28.4000 -82.1167 180° South 138 159 9,000  Climbing Tampa TRACON
12:25PM 28.3667 -82.1000 156° South 139 160 8,900 -60 Descending Tampa TRACON
12:26PM 28.3333 -82.1000 180° South 141 162 8,900  Level Tampa TRACON
12:27PM 28.2833 -82.0833 164° South 140 161 9,000  Climbing Tampa TRACON
12:28PM 28.2500 -82.0833 180° South 138 159 9,000 -60 Level Tampa TRACON
12:29PM 28.2167 -82.0667 156° South 140 161 8,900 -60 Descending Tampa TRACON
12:30PM 28.1667 -82.0667 180° South 141 162 8,900  Level Tampa TRACON
12:31PM 28.1333 -82.0500 156° South 139 160 8,900  Level Tampa TRACON
12:32PM 28.1000 -82.0333 156° South 137 158 9,000  Climbing Tampa TRACON
12:33PM 28.0667 -82.0333 180° South 138 159 8,900 -60 Descending Tampa TRACON
12:34PM 28.0167 -82.0167 164° South 141 162 8,900  Level Tampa TRACON
12:35PM 27.9833 -82.0167 180° South 142 163 8,900  Level Tampa TRACON
12:37PM 27.8989 -81.9992 170° South 141 162 8,900  Level Miami Center
12:38PM 27.8528 -81.9917 172° South 138 159 9,100 60 Climbing Miami Center
12:39PM 27.8144 -81.9853 172° South 139 160 9,100 -60 Level Miami Center
12:40PM 27.7758 -81.9789 172° South 139 160 9,000 -60 Descending Miami Center
12:41PM 27.7361 -81.9803 182° South 141 162 9,000 -60 Level Miami Center
12:43PM 27.6525 -81.9811 180° South 145 167 8,900 -60 Descending Miami Center
12:44PM 27.6133 -81.9819 181° South 143 165 8,900  Level Miami Center
12:45PM 27.5747 -81.9831 181° South 140 161 8,900  Level Miami Center
12:46PM 27.5286 -81.9856 183° South 140 161 8,900  Level Miami Center
12:47PM 27.4892 -81.9861 181° South 140 161 8,900  Level Miami Center
12:48PM 27.4503 -81.9869 181° South 140 161 8,900  Level Miami Center
12:49PM 27.4114 -81.9875 181° South 141 162 8,900 -240 Level Miami Center
12:50PM 27.4390 -81.9817 180° South  Level FlightAware Approximate
12:51PM 27.3700 -81.9869 179° South 146 168 8,400  Level Miami Center
12:52PM 27.3258 -81.9875 181° South 154 177 8,000 -540 Descending Miami Center
12:53PM 27.2753 -81.9883 181° South 154 177 7,300 -540 Descending Miami Center
12:54PM 27.2314 -81.9889 181° South 156 180 7,000 -240 Descending Miami Center
12:55PM 27.1914 -81.9897 181° South 145 167 6,900  Descending Miami Center
12:56PM 27.1525 -81.9900 180° South 140 161 7,000  Climbing Miami Center
12:57PM 27.1144 -81.9919 183° South 139 160 7,000  Level Miami Center
12:58PM 27.0664 -81.9919 180° South 142 163 7,000  Level Miami Center
12:59PM 27.0281 -81.9914 179° South 141 162 7,000 -180 Level Miami Center
01:00PM 26.9864 -81.9908 179° South 142 163 6,700 -540 Descending Miami Center
01:01PM 26.9400 -81.9908 180° South 153 176 6,000 -660 Descending Miami Center
01:02PM 26.8961 -81.9889 178° South 148 170 5,400 -480 Descending Miami Center
01:03PM 26.8581 -81.9850 175° South 143 165 5,000 -240 Descending Miami Center
01:04PM 26.8181 -81.9811 175° South 136 157 4,900  Descending Miami Center
01:05PM 26.7833 -81.9781 176° South 129 148 5,000 60 Climbing Miami Center
01:06PM 26.7444 -81.9736 174° South 129 148 5,100 -60 Climbing Miami Center
01:07PM 26.7075 -81.9703 175° South 135 155 4,900 -60 Descending Miami Center
01:08PM 26.6689 -81.9664 175° South 133 153 5,000  Climbing Miami Center
01:09PM 26.6311 -81.9631 175° South 131 151 5,000 -240 Level Miami Center
01:10PM 26.5967 -81.9525 165° South 128 147 4,500 -600 Descending Miami Center
01:11PM 26.5567 -81.9358 160° South 140 161 3,800 -660 Descending Miami Center
01:12PM 26.5197 -81.9203 159° South 140 161 3,200 -420 Descending Miami Center
01:13PM 26.4817 -81.9044 160° South 137 158 3,000 -180 Descending Miami Center
01:14PM 26.4453 -81.8906 161° South 131 151 2,900  Descending Miami Center
01:15PM 26.4111 -81.8778 161° South 131 151 3,000 -300 Climbing Miami Center
01:16PM 26.3725 -81.8606 158° South 135 155 2,300 -540 Descending Miami Center
01:17PM 26.3378 -81.8469 161° South 135 155 1,900 -180 Descending Miami Center
01:19PM 26.3025 -81.8328 160° South 131 151 2,000  Climbing Miami Center
01:20PM 26.2686 -81.8192 160° South 125 144 1,900 -300 Descending Miami Center
01:21PM 26.2344 -81.8078 163° South 125 144 1,400 -540 Descending Miami Center
01:22PM 26.2017 -81.8006 169° South 116 133 800 -480 Descending Miami Center
01:23PM 26.1775 -81.7981 175° South 93 107 500 -300 Descending Miami Center
01:24PM 26.1631 -81.7867 145° Southeast 75 86 200 -300 Descending Miami Center
01:26PM 26.1524 -81.7756 167° South  Level Estimated